Time;durP1;ratioP1;P1;durP2;ratioP2;P2;SDS_P1;SDS_P2;PMS_P1;PMS_P2;Temp;Humidity;BMP_temperature;BMP_pressure;BME280_temperature;BME280_humidity;BME280_pressure;Samples;Min_cycle;Max_cycle;Signal;HPM_P1;HPM_P2
2022/05/09 00:01:49;;;;;;;16.38;8.65;;;;;;;12.78;100.00;100605.44;12174806;19;20395;-81
2022/05/09 00:05:50;;;;;;;12.88;7.78;;;;;;;12.78;100.00;100597.16;12202684;19;20010;-80
2022/05/09 00:09:52;;;;;;;13.70;8.85;;;;;;;12.78;100.00;100590.78;12197936;19;20093;-81
2022/05/09 00:13:54;;;;;;;15.30;9.63;;;;;;;12.80;100.00;100601.63;12196109;19;20007;-81
2022/05/09 00:17:55;;;;;;;14.23;9.52;;;;;;;12.76;100.00;100596.56;12206329;19;20404;-81
2022/05/09 00:21:57;;;;;;;14.98;8.88;;;;;;;12.74;100.00;100597.91;12185523;19;20575;-81
2022/05/09 00:26:00;;;;;;;15.65;9.95;;;;;;;12.73;100.00;100597.06;12199298;19;20017;-81
2022/05/09 00:30:04;;;;;;;17.13;8.77;;;;;;;12.71;100.00;100593.69;12202471;19;20014;-82
2022/05/09 00:34:07;;;;;;;13.57;8.35;;;;;;;12.68;100.00;100598.88;12178011;19;20365;-82
2022/05/09 00:38:09;;;;;;;14.80;9.40;;;;;;;12.62;100.00;100597.09;12204359;19;20078;-82
2022/05/09 00:42:12;;;;;;;19.92;10.20;;;;;;;12.59;100.00;100595.66;12208525;19;20334;-82
2022/05/09 00:46:14;;;;;;;12.27;8.60;;;;;;;12.57;100.00;100599.75;12182032;19;20019;-82
2022/05/09 00:50:27;;;;;;;13.27;9.48;;;;;;;12.53;100.00;100596.63;12209991;19;20018;-81
2022/05/09 00:54:37;;;;;;;16.20;9.27;;;;;;;12.52;100.00;100595.81;12208739;19;20117;-81
2022/05/09 00:58:51;;;;;;;16.50;10.00;;;;;;;12.52;100.00;100595.81;12176887;19;20013;-81
2022/05/09 01:02:59;;;;;;;12.55;8.40;;;;;;;12.53;100.00;100593.88;12198256;19;20082;-81
2022/05/09 01:07:01;;;;;;;13.48;9.63;;;;;;;12.55;100.00;100599.97;12185348;19;20023;-81
2022/05/09 01:11:09;;;;;;;14.18;8.93;;;;;;;12.54;100.00;100599.13;12195462;19;20077;-82
2022/05/09 01:15:16;;;;;;;16.70;9.27;;;;;;;12.51;100.00;100587.72;12186790;19;20101;-82
2022/05/09 01:19:23;;;;;;;17.65;9.50;;;;;;;12.47;100.00;100584.63;12186953;19;20014;-82
2022/05/09 01:23:24;;;;;;;14.18;10.18;;;;;;;12.44;100.00;100593.41;12210394;19;20074;-81
2022/05/09 01:27:26;;;;;;;16.38;10.38;;;;;;;12.42;100.00;100589.19;12197032;19;20070;-83
2022/05/09 01:31:29;;;;;;;13.68;9.75;;;;;;;12.37;100.00;100589.06;12186675;19;20015;-83
2022/05/09 01:35:45;;;;;;;;;;;;;;;12.35;100.00;100585.75;12204906;19;20019;-84
2022/05/09 01:39:47;;;;;;;13.60;9.93;;;;;;;12.31;100.00;100585.34;12203619;19;19934;-83
2022/05/09 01:43:52;;;;;;;17.55;10.13;;;;;;;12.25;100.00;100592.69;12180662;19;20044;-83
2022/05/09 01:52:15;;;;;;;13.82;9.55;;;;;;;12.15;100.00;100600.75;12187606;19;20110;-84
2022/05/09 01:56:19;;;;;;;16.50;10.13;;;;;;;12.11;100.00;100593.22;12197545;19;20011;-83
2022/05/09 02:00:21;;;;;;;16.73;10.65;;;;;;;12.06;100.00;100596.69;12199140;19;20017;-84
2022/05/09 02:04:23;;;;;;;17.15;10.00;;;;;;;12.02;100.00;100606.53;12187074;19;20098;-83
2022/05/09 02:08:26;;;;;;;14.95;10.25;;;;;;;11.97;100.00;100611.94;12209308;19;20006;-83
2022/05/09 02:12:27;;;;;;;16.87;9.77;;;;;;;11.94;100.00;100610.50;12209240;19;20006;-83
2022/05/09 02:16:30;;;;;;;14.27;9.70;;;;;;;11.92;100.00;100606.28;12189007;19;20010;-83
2022/05/09 02:20:31;;;;;;;16.95;9.70;;;;;;;11.87;100.00;100604.25;12203199;19;20495;-84
2022/05/09 02:24:33;;;;;;;14.43;9.77;;;;;;;11.83;100.00;100601.06;12210874;19;20089;-83
2022/05/09 02:28:35;;;;;;;16.77;10.00;;;;;;;11.83;100.00;100603.84;12192642;19;20039;-83
2022/05/09 02:32:36;;;;;;;13.18;9.32;;;;;;;11.83;100.00;100597.47;12209070;19;20010;-83
2022/05/09 02:36:39;;;;;;;20.20;10.15;;;;;;;11.79;100.00;100608.16;12208090;19;20006;-83
2022/05/09 02:40:40;;;;;;;16.67;9.23;;;;;;;11.70;100.00;100604.06;12181709;19;20481;-83
2022/05/09 02:44:42;;;;;;;14.88;11.25;;;;;;;11.63;100.00;100603.34;12206311;19;20033;-83
2022/05/09 02:48:45;;;;;;;19.38;12.07;;;;;;;11.55;100.00;100607.28;12216500;19;20511;-83
2022/05/09 02:52:47;;;;;;;13.32;9.77;;;;;;;11.45;100.00;100612.56;12184678;19;20014;-83
2022/05/09 02:56:49;;;;;;;14.25;9.90;;;;;;;11.32;100.00;100608.06;12202125;19;20019;-83
2022/05/09 03:00:50;;;;;;;14.27;9.95;;;;;;;11.20;100.00;100615.47;12213003;19;20508;-83
2022/05/09 03:04:52;;;;;;;15.07;9.38;;;;;;;11.12;100.00;100613.91;12196125;19;20006;-83
2022/05/09 03:08:54;;;;;;;17.90;10.57;;;;;;;11.00;100.00;100614.91;12212888;19;20006;-83
2022/05/09 03:12:59;;;;;;;15.57;9.98;;;;;;;10.90;100.00;100620.97;12182476;19;20010;-84
2022/05/09 03:17:01;;;;;;;20.80;11.77;;;;;;;10.83;100.00;100607.28;12204542;19;20011;-83
2022/05/09 03:21:04;;;;;;;18.50;10.65;;;;;;;10.76;100.00;100620.28;12204403;19;20017;-82
2022/05/09 03:25:06;;;;;;;15.13;10.27;;;;;;;10.64;100.00;100611.13;12186503;19;20468;-83
2022/05/09 03:29:08;;;;;;;16.67;11.98;;;;;;;10.52;100.00;100612.97;12203430;19;20015;-83
2022/05/09 03:33:16;;;;;;;14.23;10.75;;;;;;;10.48;100.00;100616.19;12202610;19;20659;-81
2022/05/09 03:37:17;;;;;;;18.63;10.23;;;;;;;10.42;100.00;100616.25;12176795;19;20506;-81
2022/05/09 03:41:20;;;;;;;20.13;11.02;;;;;;;10.40;100.00;100621.16;12216156;19;20344;-80
2022/05/09 03:45:22;;;;;;;;;;;;;;;10.37;100.00;100613.34;12210932;19;20020;-80
2022/05/09 03:49:24;;;;;;;15.85;10.07;;;;;;;10.36;100.00;100620.78;12174758;19;19911;-82
2022/05/09 03:53:25;;;;;;;16.50;11.75;;;;;;;10.35;100.00;100627.38;12210475;19;20013;-81
2022/05/09 03:57:27;;;;;;;19.38;12.27;;;;;;;10.27;100.00;100625.75;12202102;19;20030;-83
2022/05/09 04:01:29;;;;;;;21.13;11.55;;;;;;;10.24;100.00;100633.59;12171998;19;20010;-82
2022/05/09 04:05:31;;;;;;;26.23;12.38;;;;;;;10.20;100.00;100633.22;12205107;19;20082;-81
2022/05/09 04:09:33;;;;;;;19.25;12.43;;;;;;;10.20;100.00;100640.59;12199706;19;20427;-83
2022/05/09 04:13:35;;;;;;;21.90;11.43;;;;;;;10.17;100.00;100633.66;12175869;19;20010;-83
2022/05/09 04:17:37;;;;;;;16.77;11.03;;;;;;;10.19;100.00;100639.75;12202278;19;20019;-83
2022/05/09 04:21:39;;;;;;;16.50;10.88;;;;;;;10.22;100.00;100636.56;12198740;19;20519;-83
2022/05/09 04:25:41;;;;;;;17.38;11.15;;;;;;;10.20;100.00;100648.88;12179275;19;20018;-81
2022/05/09 04:29:47;;;;;;;16.48;10.43;;;;;;;10.15;100.00;100645.97;12196651;19;20010;-81
2022/05/09 04:33:49;;;;;;;18.77;11.35;;;;;;;10.16;100.00;100655.91;12199687;19;20011;-80
2022/05/09 04:37:53;;;;;;;19.35;11.00;;;;;;;10.16;100.00;100651.25;12170891;19;20114;-80
2022/05/09 04:41:56;;;;;;;18.15;10.20;;;;;;;10.15;100.00;100657.00;12201402;19;20495;-79
2022/05/09 04:45:59;;;;;;;23.17;11.83;;;;;;;10.17;100.00;100660.34;12181205;19;20045;-80
2022/05/09 04:50:01;;;;;;;20.02;12.18;;;;;;;10.21;100.00;100667.09;12205776;19;20732;-79
2022/05/09 04:54:03;;;;;;;20.37;12.20;;;;;;;10.25;100.00;100660.06;12205737;19;20700;-79
2022/05/09 04:58:05;;;;;;;19.23;11.23;;;;;;;10.32;100.00;100666.41;12188816;19;20020;-80
2022/05/09 05:02:06;;;;;;;16.38;9.77;;;;;;;10.33;100.00;100667.22;12248932;19;20002;-81
2022/05/09 05:06:08;;;;;;;18.63;9.77;;;;;;;10.37;100.00;100669.28;12248942;19;20002;-80
2022/05/09 05:10:11;;;;;;;16.15;9.38;;;;;;;10.44;100.00;100669.22;12232763;19;19999;-80
2022/05/09 05:14:12;;;;;;;18.85;9.18;;;;;;;10.52;100.00;100663.41;12249027;19;20031;-80
2022/05/09 05:18:26;;;;;;;13.75;8.48;;;;;;;10.59;100.00;100663.31;12246764;19;20006;-79
2022/05/09 05:22:28;;;;;;;12.32;8.40;;;;;;;10.68;100.00;100667.50;12230190;19;20094;-80
2022/05/09 05:26:30;;;;;;;15.80;9.25;;;;;;;10.77;100.00;100679.88;12211659;19;20856;-80
2022/05/09 05:30:32;;;;;;;17.83;8.88;;;;;;;10.85;100.00;100690.59;12221453;19;20013;-79
2022/05/09 05:34:35;;;;;;;12.43;7.95;;;;;;;10.94;100.00;100689.19;12146994;19;20010;-79
2022/05/09 05:38:43;;;;;;;17.02;9.40;;;;;;;11.04;100.00;100685.09;12203355;19;20046;-80
2022/05/09 05:42:47;;;;;;;12.48;8.30;;;;;;;11.13;100.00;100686.44;12202849;19;20010;-80
2022/05/09 05:46:49;;;;;;;17.05;8.70;;;;;;;11.20;100.00;100689.09;12185325;19;20011;-80
2022/05/09 05:50:55;;;;;;;12.27;7.88;;;;;;;11.31;100.00;100689.16;12211368;19;20002;-80
2022/05/09 05:54:57;;;;;;;14.65;7.80;;;;;;;11.41;100.00;100689.44;12181758;19;20078;-80
2022/05/09 05:58:58;;;;;;;11.02;7.32;;;;;;;11.54;100.00;100688.44;12210058;19;20032;-80
2022/05/09 06:03:00;;;;;;;13.35;7.78;;;;;;;11.69;100.00;100687.13;12201308;19;20031;-80
2022/05/09 06:07:04;;;;;;;10.30;7.03;;;;;;;11.84;100.00;100685.63;12180607;19;20015;-80
2022/05/09 06:11:07;;;;;;;13.00;7.78;;;;;;;11.99;100.00;100689.88;12211104;19;20015;-80
2022/05/09 06:19:30;;;;;;;10.00;5.82;;;;;;;12.48;100.00;100696.88;12184020;19;20010;-80
2022/05/09 06:23:32;;;;;;;11.80;6.68;;;;;;;12.73;100.00;100698.53;12207752;19;20011;-80
2022/05/09 06:27:34;;;;;;;13.18;6.82;;;;;;;12.98;100.00;100696.31;12198830;19;20397;-80
2022/05/09 06:31:37;;;;;;;12.02;6.25;;;;;;;13.21;100.00;100700.13;12183069;19;20007;-81
2022/05/09 06:35:44;;;;;;;8.10;4.93;;;;;;;13.42;100.00;100705.00;12198633;19;20011;-80
2022/05/09 06:39:46;;;;;;;12.10;6.43;;;;;;;13.66;100.00;100708.50;12192920;19;20074;-79
2022/05/09 06:43:47;;;;;;;11.20;5.80;;;;;;;13.85;98.78;100705.50;12175086;19;20072;-80
2022/05/09 06:47:52;;;;;;;9.68;5.57;;;;;;;14.03;97.03;100701.66;12207453;19;20060;-80
2022/05/09 06:51:58;;;;;;;8.27;5.20;;;;;;;14.21;94.28;100697.81;12193666;19;20618;-80
2022/05/09 06:56:05;;;;;;;10.15;4.80;;;;;;;14.49;93.87;100692.16;12210924;19;20021;-80
2022/05/09 07:00:11;;;;;;;8.55;4.20;;;;;;;14.75;93.05;100695.31;12207212;19;20014;-80
2022/05/09 07:04:13;;;;;;;11.68;4.63;;;;;;;14.92;91.37;100701.66;12184568;19;20037;-80
2022/05/09 07:08:15;;;;;;;8.10;4.70;;;;;;;15.14;87.82;100698.06;12204597;19;20006;-80
2022/05/09 07:12:17;;;;;;;9.65;4.82;;;;;;;15.39;87.12;100690.03;12216204;19;20061;-80
2022/05/09 07:16:19;;;;;;;8.77;4.20;;;;;;;15.65;86.65;100695.88;12189358;19;20066;-80
2022/05/09 07:20:25;;;;;;;8.48;4.93;;;;;;;15.90;84.35;100700.88;12203764;19;20007;-80
2022/05/09 07:24:26;;;;;;;8.48;4.47;;;;;;;16.13;83.92;100699.69;12212219;19;20006;-80
2022/05/09 07:28:29;;;;;;;13.55;5.82;;;;;;;16.39;81.30;100696.00;12186370;19;20019;-80
2022/05/09 07:32:30;;;;;;;15.93;5.22;;;;;;;16.61;80.50;100700.59;12204986;19;20524;-79
2022/05/09 07:36:33;;;;;;;10.20;5.72;;;;;;;16.79;77.83;100700.19;12206369;19;20089;-79
2022/05/09 07:40:35;;;;;;;6.78;4.45;;;;;;;17.04;76.06;100704.22;12188774;19;20066;-80
2022/05/09 07:44:39;;;;;;;9.90;4.70;;;;;;;17.22;76.67;100712.13;12208476;19;20050;-80
2022/05/09 07:48:41;;;;;;;9.65;4.35;;;;;;;17.39;75.19;100706.31;12219653;19;20082;-80
2022/05/09 07:52:43;;;;;;;7.53;4.85;;;;;;;17.60;73.61;100715.56;12188189;19;20100;-80
2022/05/09 07:56:45;;;;;;;9.50;4.80;;;;;;;17.82;74.01;100714.53;12204268;19;20010;-80
2022/05/09 08:00:46;;;;;;;9.75;4.13;;;;;;;18.04;73.23;100717.91;12208989;19;20082;-80
2022/05/09 08:04:48;;;;;;;10.43;4.73;;;;;;;18.25;72.51;100706.75;12176955;19;20014;-80
2022/05/09 08:08:50;;;;;;;8.65;4.72;;;;;;;18.49;71.24;100707.84;12206399;19;20083;-80
2022/05/09 08:12:52;;;;;;;8.38;4.47;;;;;;;18.74;71.28;100711.75;12204500;19;20030;-80
2022/05/09 08:16:54;;;;;;;12.43;4.70;;;;;;;18.97;67.44;100705.53;12180282;19;20487;-80
2022/05/09 08:20:57;;;;;;;8.60;4.93;;;;;;;19.13;66.57;100704.38;12206215;19;20272;-80
2022/05/09 08:25:03;;;;;;;6.55;4.38;;;;;;;19.34;65.96;100710.72;12186768;19;20017;-81
2022/05/09 08:29:07;;;;;;;8.38;5.10;;;;;;;19.61;64.87;100711.44;12199555;19;20006;-80
2022/05/09 08:33:17;;;;;;;5.90;4.47;;;;;;;19.78;65.60;100712.75;12205639;19;20500;-81
2022/05/09 08:37:20;;;;;;;7.10;4.88;;;;;;;19.86;63.61;100707.66;12183526;19;20484;-80
2022/05/09 08:41:22;;;;;;;8.80;5.18;;;;;;;20.09;63.88;100714.50;12207212;19;20078;-80
2022/05/09 08:45:30;;;;;;;10.40;5.00;;;;;;;20.24;62.26;100718.00;12200806;19;20764;-81
2022/05/09 08:49:56;;;;;;;8.82;5.00;;;;;;;20.49;62.08;100711.34;12179351;19;20015;-80
2022/05/09 08:54:03;;;;;;;10.57;5.28;;;;;;;20.52;59.40;100712.75;12207314;19;20010;-82
2022/05/09 08:58:28;;;;;;;11.32;5.00;;;;;;;20.68;60.09;100707.84;12177079;19;20011;-80
2022/05/09 09:02:36;;;;;;;8.30;5.38;;;;;;;20.97;58.62;100705.03;12201347;19;20010;-80
2022/05/09 09:07:00;;;;;;;11.68;5.72;;;;;;;21.02;58.30;100709.72;12200047;19;20013;-80
2022/05/09 09:11:23;;;;;;;15.07;5.53;;;;;;;21.14;58.66;100704.53;12186785;19;20010;-81
2022/05/09 09:26:49;;;;;;;8.00;4.70;;;;;;;21.55;56.81;100710.47;12207786;19;20021;-81
2022/05/09 09:37:26;;;;;;;8.00;4.85;;;;;;;21.56;55.71;100698.09;12199934;19;20010;-82
2022/05/09 09:48:06;;;;;;;7.40;4.60;;;;;;;21.99;53.86;100688.78;12216325;19;20120;-81
2022/05/09 10:03:20;;;;;;;8.70;4.55;;;;;;;23.18;50.19;100675.97;12197759;19;20017;-81
2022/05/09 10:07:30;;;;;;;8.10;5.20;;;;;;;23.29;50.81;100675.72;12189011;19;20486;-81
2022/05/09 10:11:32;;;;;;;10.43;5.13;;;;;;;23.31;49.69;100670.63;12196571;19;20448;-80
2022/05/09 10:15:39;;;;;;;8.02;4.90;;;;;;;23.30;48.57;100669.81;12198404;19;20027;-81
2022/05/09 10:19:44;;;;;;;10.40;4.78;;;;;;;23.62;49.79;100651.09;12181483;19;20086;-81
2022/05/09 10:28:21;;;;;;;13.85;4.60;;;;;;;23.69;46.82;100653.47;12190390;19;20023;-82
2022/05/09 10:32:51;;;;;;;6.97;4.25;;;;;;;23.77;47.91;100655.56;12196985;19;20007;-82
2022/05/09 10:37:02;;;;;;;5.72;3.78;;;;;;;24.20;46.56;100655.06;12188755;19;20078;-80
2022/05/09 10:41:13;;;;;;;7.05;3.97;;;;;;;24.34;45.39;100642.56;12212997;19;20035;-81
2022/05/09 10:45:23;;;;;;;5.25;3.42;;;;;;;24.38;44.76;100639.91;12206925;19;20007;-81
2022/05/09 10:49:38;;;;;;;8.38;4.18;;;;;;;24.60;44.02;100632.59;12180933;19;20752;-82
2022/05/09 10:53:55;;;;;;;4.10;3.63;;;;;;;24.96;43.05;100629.63;12205964;19;20011;-80
2022/05/09 10:58:12;;;;;;;9.13;5.20;;;;;;;25.21;42.36;100628.03;12187716;19;20007;-81
2022/05/09 11:02:44;;;;;;;6.22;4.13;;;;;;;25.26;42.38;100612.97;12203172;19;20022;-81
2022/05/09 11:07:03;;;;;;;5.47;3.95;;;;;;;25.37;41.87;100611.47;12188552;19;20039;-81
2022/05/09 11:11:20;;;;;;;8.77;4.43;;;;;;;25.43;41.86;100605.34;12213630;19;20538;-81
2022/05/09 11:15:33;;;;;;;7.72;4.22;;;;;;;25.68;42.75;100597.22;12208155;19;20027;-82
2022/05/09 11:19:53;;;;;;;6.97;4.10;;;;;;;25.97;42.84;100598.53;12185440;19;20731;-82
2022/05/09 11:24:18;;;;;;;7.38;4.50;;;;;;;26.04;40.78;100596.06;12216429;19;20031;-81
2022/05/09 11:28:46;;;;;;;5.03;3.88;;;;;;;25.99;40.28;100593.41;12194136;19;20078;-81
2022/05/09 11:33:14;;;;;;;6.68;3.50;;;;;;;26.25;40.49;100584.88;12207754;19;20099;-83
2022/05/09 11:37:38;;;;;;;5.78;4.10;;;;;;;26.41;38.68;100579.50;12187944;19;20031;-83
2022/05/09 11:43:27;;;;;;;6.65;4.05;;;;;;;26.99;38.71;100575.91;12209278;19;20486;-82
2022/05/09 11:46:40;;;;;;;6.28;4.75;;;;;;;27.33;37.68;100567.56;12184992;19;20007;-83
2022/05/09 11:51:16;;;;;;;6.30;4.00;;;;;;;27.83;36.42;100555.31;12216008;19;20074;-83
2022/05/09 11:55:23;;;;;;;6.03;4.40;;;;;;;28.24;36.64;100564.91;12179339;19;20018;-83
2022/05/09 11:59:28;;;;;;;8.10;3.70;;;;;;;28.54;35.67;100560.72;12207582;19;20010;-83
2022/05/09 12:03:42;;;;;;;6.53;4.20;;;;;;;28.91;33.66;100554.19;12210113;19;20793;-83
2022/05/09 12:07:49;;;;;;;5.78;4.55;;;;;;;29.23;31.96;100541.06;12179380;19;20014;-83
2022/05/09 12:11:52;;;;;;;5.85;4.43;;;;;;;30.01;32.51;100541.72;12212497;19;20471;-82
2022/05/09 12:15:59;;;;;;;4.70;4.20;;;;;;;30.44;30.95;100538.03;12196187;19;20014;-84
2022/05/09 12:20:05;;;;;;;4.70;4.20;;;;;;;31.23;30.55;100535.06;12211346;19;20017;-84
2022/05/09 12:24:20;;;;;;;7.40;4.82;;;;;;;31.97;30.01;100528.53;12210783;19;21544;-83
2022/05/09 12:28:25;;;;;;;6.32;4.78;;;;;;;32.63;28.98;100527.28;12187682;19;20010;-84
2022/05/09 12:32:27;;;;;;;4.68;4.18;;;;;;;32.68;27.40;100520.44;12215844;19;20488;-83
2022/05/09 12:36:32;;;;;;;5.15;4.60;;;;;;;32.61;26.98;100517.47;12205887;19;20120;-84
2022/05/09 12:40:34;;;;;;;6.15;4.75;;;;;;;32.83;26.78;100513.72;12182086;19;20077;-84
2022/05/09 12:44:45;;;;;;;7.03;4.30;;;;;;;33.57;26.06;100506.66;12199366;19;20003;-86
2022/05/09 12:48:48;;;;;;;7.28;4.53;;;;;;;33.69;25.04;100499.84;12195577;19;20078;-83
2022/05/09 12:53:14;;;;;;;6.32;4.80;;;;;;;34.35;24.65;100495.22;12178389;19;20023;-83
2022/05/09 12:57:32;;;;;;;5.32;4.32;;;;;;;34.73;23.87;100498.81;12203409;19;20468;-86
2022/05/09 13:01:35;;;;;;;6.82;4.25;;;;;;;34.67;24.42;100484.06;12179219;19;20079;-85
2022/05/09 13:06:10;;;;;;;5.03;4.20;;;;;;;34.88;24.27;100477.66;12201262;19;20014;-85
2022/05/09 13:10:13;;;;;;;4.90;4.20;;;;;;;33.43;24.76;100472.16;12186725;19;20221;-86
2022/05/09 13:14:22;;;;;;;5.70;4.53;;;;;;;34.27;23.45;100476.38;12197044;19;20011;-85
2022/05/09 13:18:40;;;;;;;5.78;4.47;;;;;;;34.68;23.05;100464.84;12199068;19;20562;-86
2022/05/09 13:22:47;;;;;;;6.53;3.75;;;;;;;35.41;22.27;100458.31;12180014;19;20101;-85
2022/05/09 13:26:53;;;;;;;5.40;4.00;;;;;;;35.29;22.26;100450.91;12210457;19;20027;-85
2022/05/09 13:30:58;;;;;;;4.70;3.95;;;;;;;35.27;22.58;100439.81;12180373;19;20033;-85
2022/05/09 13:35:25;;;;;;;4.60;4.13;;;;;;;35.16;21.50;100427.50;12202858;19;20372;-83
2022/05/09 13:39:50;;;;;;;5.53;4.30;;;;;;;35.79;21.61;100440.41;12197527;19;20070;-85
2022/05/09 13:43:56;;;;;;;5.32;3.97;;;;;;;36.10;21.45;100437.19;12182359;19;20018;-84
2022/05/09 13:48:00;;;;;;;6.05;3.80;;;;;;;36.60;20.92;100422.84;12201705;19;20007;-85
2022/05/09 13:52:08;;;;;;;3.97;3.58;;;;;;;37.30;20.31;100420.16;12181545;19;20028;-85
2022/05/09 13:56:14;;;;;;;4.60;4.07;;;;;;;37.46;19.47;100422.56;12206541;19;20061;-84
2022/05/09 14:00:22;;;;;;;4.47;3.55;;;;;;;37.42;19.79;100413.94;12213800;19;20350;-85
2022/05/09 14:04:25;;;;;;;5.45;3.92;;;;;;;37.68;19.15;100408.88;12186525;19;20020;-84
2022/05/09 14:08:28;;;;;;;4.18;3.70;;;;;;;38.48;19.25;100405.78;12208610;19;20697;-85
2022/05/09 14:12:36;;;;;;;6.38;4.22;;;;;;;38.35;19.53;100404.66;12212755;19;20796;-85
2022/05/09 14:16:48;;;;;;;5.03;3.70;;;;;;;38.33;18.31;100391.94;12195623;19;20033;-85
2022/05/09 14:20:59;;;;;;;8.05;3.50;;;;;;;38.24;18.95;100401.88;12214428;19;20372;-84
2022/05/09 14:30:01;;;;;;;5.30;4.05;;;;;;;34.38;21.42;100382.84;12216073;19;20512;-84
2022/05/09 14:34:35;;;;;;;6.95;3.65;;;;;;;32.36;22.92;100371.56;12192722;19;20018;-84
2022/05/09 14:38:40;;;;;;;4.40;4.00;;;;;;;31.16;24.40;100369.81;12218761;19;20428;-84
2022/05/09 14:42:53;;;;;;;9.30;4.70;;;;;;;31.23;24.32;100367.09;12213955;19;20015;-84
2022/05/09 14:47:07;;;;;;;6.18;3.67;;;;;;;31.00;24.91;100364.22;12199817;19;20028;-83
2022/05/09 14:51:29;;;;;;;5.60;4.10;;;;;;;30.42;25.69;100364.13;12204329;19;20003;-82
2022/05/09 15:00:04;;;;;;;5.93;3.60;;;;;;;29.13;26.55;100351.44;12203529;19;20066;-84
2022/05/09 15:04:07;;;;;;;5.53;4.03;;;;;;;28.59;27.56;100353.50;12188919;19;20006;-83
2022/05/09 15:08:09;;;;;;;6.13;3.55;;;;;;;28.29;27.98;100354.94;12211787;19;20015;-83
2022/05/09 15:12:20;;;;;;;5.25;3.22;;;;;;;27.63;29.50;100351.13;12216980;19;20013;-82
2022/05/09 15:16:26;;;;;;;4.63;3.17;;;;;;;26.92;29.56;100354.22;12188083;19;20014;-84
2022/05/09 15:20:36;;;;;;;8.27;3.47;;;;;;;26.47;30.18;100349.22;12209059;19;20011;-82
2022/05/09 15:24:39;;;;;;;7.50;4.00;;;;;;;26.47;30.56;100335.94;12217920;19;20003;-83
2022/05/09 15:28:41;;;;;;;6.35;3.72;;;;;;;26.49;30.45;100335.59;12186304;19;20131;-83
2022/05/09 15:32:43;;;;;;;4.65;3.33;;;;;;;26.63;30.17;100332.53;12239395;19;20014;-84
2022/05/09 15:36:44;;;;;;;3.95;3.05;;;;;;;27.24;29.50;100327.13;12208390;19;20014;-82
2022/05/09 15:40:54;;;;;;;4.60;3.28;;;;;;;27.70;28.84;100319.44;12189858;19;20086;-82
2022/05/09 15:45:06;;;;;;;5.45;3.00;;;;;;;27.47;28.90;100319.88;12213673;19;20006;-84
2022/05/09 15:49:15;;;;;;;6.63;3.10;;;;;;;27.16;29.97;100323.25;12182397;19;20011;-83
2022/05/09 15:53:19;;;;;;;3.95;2.88;;;;;;;27.14;30.21;100331.22;12203052;19;20037;-84
2022/05/09 15:57:23;;;;;;;6.60;3.00;;;;;;;27.08;29.82;100320.47;12207991;19;20379;-83
2022/05/09 16:01:30;;;;;;;6.22;3.40;;;;;;;27.04;30.36;100324.00;12181664;19;20023;-83
2022/05/09 16:11:23;;;;;;;5.28;3.10;;;;;;;26.87;30.55;100315.69;12217251;19;20129;-84
2022/05/09 16:14:17;;;;;;;4.97;3.30;;;;;;;26.48;31.38;100319.81;12205380;19;20018;-84
2022/05/09 16:18:28;;;;;;;6.90;2.88;;;;;;;26.31;31.41;100320.78;12203426;19;20069;-84
2022/05/09 16:22:31;;;;;;;4.67;3.33;;;;;;;26.22;31.46;100320.00;12188467;19;20006;-83
2022/05/09 16:26:36;;;;;;;6.82;2.97;;;;;;;25.97;31.75;100325.50;12210800;19;20014;-84
2022/05/09 16:30:38;;;;;;;7.90;3.42;;;;;;;25.72;31.99;100323.59;12200823;19;20745;-84
2022/05/09 16:34:42;;;;;;;5.07;4.55;;;;;;;25.43;32.42;100326.03;12180597;19;20107;-83
2022/05/09 16:38:44;;;;;;;4.90;3.75;;;;;;;25.23;32.56;100335.22;12198586;19;20074;-82
2022/05/09 16:42:48;;;;;;;5.75;3.22;;;;;;;25.08;33.31;100327.28;12205467;19;20080;-83
2022/05/09 16:46:49;;;;;;;6.22;4.10;;;;;;;24.94;34.32;100322.63;12178359;19;20023;-83
2022/05/09 16:50:51;;;;;;;4.85;3.85;;;;;;;24.63;34.91;100322.00;12205234;19;20041;-83
2022/05/09 16:54:53;;;;;;;7.70;4.70;;;;;;;24.33;36.06;100325.47;12190974;19;20012;-83
2022/05/09 16:58:55;;;;;;;8.23;3.78;;;;;;;24.17;37.26;100323.44;12208675;19;20053;-83
2022/05/09 17:02:56;;;;;;;6.73;3.80;;;;;;;23.99;37.78;100314.97;12199147;19;20011;-81
2022/05/09 17:06:58;;;;;;;6.47;3.88;;;;;;;23.85;38.84;100328.31;12185622;19;20014;-82
2022/05/09 17:11:00;;;;;;;6.50;3.70;;;;;;;23.71;39.22;100324.78;12210174;19;20086;-82
2022/05/09 17:15:11;;;;;;;7.32;4.57;;;;;;;23.69;39.72;100321.47;12196595;19;20030;-82
2022/05/09 17:19:13;;;;;;;7.30;4.07;;;;;;;23.62;39.76;100319.97;12182955;19;20023;-81
2022/05/09 17:23:15;;;;;;;7.67;3.27;;;;;;;23.60;40.10;100327.88;12203716;19;20033;-81
2022/05/09 17:27:17;;;;;;;5.43;3.65;;;;;;;23.46;40.09;100318.72;12199057;19;20027;-81
2022/05/09 17:31:23;;;;;;;7.22;3.58;;;;;;;23.36;41.19;100322.66;12178549;19;20013;-81
2022/05/09 17:37:15;;;;;;;4.53;3.42;;;;;;;23.25;42.44;100326.88;12198272;19;20494;-82
2022/05/09 17:39:50;;;;;;;8.93;3.40;;;;;;;23.13;43.00;100327.47;12202372;19;20014;-82
2022/05/09 17:44:00;;;;;;;4.60;3.92;;;;;;;22.99;42.85;100326.72;12177989;19;20394;-81
2022/05/09 17:48:12;;;;;;;5.70;3.38;;;;;;;22.80;43.85;100323.25;12194664;19;20078;-82
2022/05/09 17:52:14;;;;;;;6.05;4.10;;;;;;;22.57;44.86;100320.44;12173268;19;19996;-82
2022/05/09 17:56:16;;;;;;;5.03;2.80;;;;;;;22.41;44.69;100316.34;12194111;19;20078;-81
2022/05/09 18:00:18;;;;;;;5.50;3.63;;;;;;;22.34;45.39;100321.53;12192802;19;20500;-82
2022/05/09 18:04:24;;;;;;;4.45;3.13;;;;;;;22.16;46.14;100321.38;12173387;19;20010;-81
2022/05/09 18:08:26;;;;;;;4.55;3.20;;;;;;;21.97;46.44;100323.47;12197030;19;20044;-83
2022/05/09 18:12:42;;;;;;;5.00;3.55;;;;;;;21.77;47.00;100335.94;12204371;19;20081;-82
2022/05/09 18:16:53;;;;;;;5.43;2.92;;;;;;;21.57;47.63;100321.22;12181386;19;20006;-81
2022/05/09 18:21:00;;;;;;;6.10;3.50;;;;;;;21.36;48.10;100326.38;12195559;19;20019;-81
2022/05/09 18:25:04;;;;;;;5.15;3.75;;;;;;;21.12;48.41;100328.50;12179290;19;20126;-80
2022/05/09 18:29:07;;;;;;;5.07;3.60;;;;;;;20.88;48.60;100337.88;12202796;19;20007;-80
2022/05/09 18:33:15;;;;;;;7.68;3.85;;;;;;;20.62;49.04;100326.25;12201542;19;20037;-81
2022/05/09 18:37:28;;;;;;;4.90;3.60;;;;;;;20.38;50.01;100333.88;12175127;19;20529;-81
2022/05/09 18:41:31;;;;;;;5.20;3.22;;;;;;;20.12;50.11;100336.19;12210202;19;20007;-81
2022/05/09 18:45:32;;;;;;;6.50;3.90;;;;;;;19.89;50.16;100330.34;12216788;19;20449;-81
2022/05/09 18:53:54;;;;;;;6.10;3.42;;;;;;;19.48;50.65;100339.19;12215908;19;20006;-81
2022/05/09 18:57:59;;;;;;;7.90;3.97;;;;;;;19.30;50.78;100337.13;12193588;19;20460;-80
2022/05/09 19:02:01;;;;;;;5.50;3.60;;;;;;;19.10;51.19;100335.41;12213038;19;20011;-81
2022/05/09 19:06:04;;;;;;;4.45;3.72;;;;;;;18.96;51.86;100342.78;12211353;19;20003;-81
2022/05/09 19:10:10;;;;;;;5.65;3.70;;;;;;;18.79;52.08;100344.03;12193500;19;20002;-82
2022/05/09 19:14:27;;;;;;;4.97;3.65;;;;;;;18.66;52.12;100356.66;12207710;19;20010;-84
2022/05/09 19:18:33;;;;;;;4.50;3.55;;;;;;;18.53;52.37;100351.75;12211304;19;20020;-85
2022/05/09 19:22:35;;;;;;;4.95;3.47;;;;;;;18.43;52.70;100354.59;12196578;19;20011;-83
2022/05/09 19:26:37;;;;;;;5.78;3.63;;;;;;;18.33;53.06;100365.84;12201124;19;20488;-84
2022/05/09 19:30:40;;;;;;;6.93;3.27;;;;;;;18.25;52.69;100358.88;12219995;19;20491;-84
2022/05/09 19:34:42;;;;;;;6.55;3.55;;;;;;;18.18;53.07;100362.00;12194184;19;20007;-83
2022/05/09 19:38:45;;;;;;;4.88;3.60;;;;;;;18.10;53.16;100367.34;12211346;19;20002;-82
2022/05/09 19:42:53;;;;;;;4.90;3.60;;;;;;;18.02;53.62;100363.19;12215982;19;20014;-82
2022/05/09 19:46:56;;;;;;;8.30;3.67;;;;;;;17.95;54.08;100376.59;12188627;19;20062;-82